Time;durP1;ratioP1;P1;durP2;ratioP2;P2;SDS_P1;SDS_P2;PMS_P1;PMS_P2;Temp;Humidity;BMP_temperature;BMP_pressure;BME280_temperature;BME280_humidity;BME280_pressure;Samples;Min_cycle;Max_cycle;Signal;HPM_P1;HPM_P2
2021/08/18 00:00:46;;;;;;;17.63;10.30;;;;;;;21.68;45.07;99134.13;5032864;28;20399;-49
2021/08/18 00:03:13;;;;;;;19.48;11.27;;;;;;;21.61;45.08;99133.56;5032806;28;20510;-49
2021/08/18 00:05:39;;;;;;;15.95;10.30;;;;;;;21.62;45.10;99131.69;5032825;28;20022;-50
2021/08/18 00:08:06;;;;;;;19.15;11.23;;;;;;;21.76;44.87;99134.69;5048054;28;20124;-49
2021/08/18 00:10:32;;;;;;;13.40;10.60;;;;;;;21.81;44.63;99132.84;5031246;28;20407;-50
2021/08/18 00:12:58;;;;;;;35.10;14.82;;;;;;;21.71;44.73;99133.59;5032613;28;20028;-49
2021/08/18 00:15:24;;;;;;;22.10;11.13;;;;;;;21.65;44.62;99131.97;5031289;28;20496;-49
2021/08/18 00:17:51;;;;;;;16.02;10.45;;;;;;;21.59;44.92;99133.03;5031209;28;20084;-49
2021/08/18 00:20:16;;;;;;;22.48;10.48;;;;;;;21.38;44.75;99126.75;5032471;28;20108;-49
2021/08/18 00:22:44;;;;;;;23.15;11.23;;;;;;;21.25;45.62;99132.56;5031211;28;20032;-49
2021/08/18 00:25:10;;;;;;;32.08;28.65;;;;;;;21.46;45.09;99130.81;5032366;28;20025;-49
2021/08/18 00:27:36;;;;;;;18.40;13.05;;;;;;;21.61;45.06;99130.91;5030830;28;20099;-50
2021/08/18 00:30:03;;;;;;;10.88;8.95;;;;;;;21.92;44.28;99128.31;5032289;28;20036;-49
2021/08/18 00:32:32;;;;;;;24.88;14.98;;;;;;;22.01;44.13;99126.72;5032291;28;20017;-49
2021/08/18 00:34:58;;;;;;;17.15;11.15;;;;;;;21.84;43.80;99118.13;5030941;28;20060;-49
2021/08/18 00:37:23;;;;;;;14.50;9.63;;;;;;;21.58;44.43;99123.41;5030893;28;20116;-49
2021/08/18 00:39:49;;;;;;;16.70;11.02;;;;;;;21.42;44.99;99121.69;5032207;28;20056;-49
2021/08/18 00:42:17;;;;;;;16.85;10.60;;;;;;;21.48;45.11;99118.03;5047679;28;20136;-50
2021/08/18 00:44:43;;;;;;;20.33;11.73;;;;;;;21.70;44.89;99115.94;5030834;28;20450;-49
2021/08/18 00:47:09;;;;;;;17.60;9.82;;;;;;;21.75;44.61;99115.16;5031961;28;20025;-50
2021/08/18 00:49:35;;;;;;;25.38;12.20;;;;;;;21.76;44.42;99106.09;5030784;28;20032;-49
2021/08/18 00:52:02;;;;;;;25.25;11.85;;;;;;;21.82;44.33;99096.22;5030612;28;20022;-49
2021/08/18 00:54:28;;;;;;;20.25;13.88;;;;;;;21.85;44.21;99096.50;5032012;28;20021;-49
2021/08/18 00:56:54;;;;;;;17.55;9.75;;;;;;;21.80;44.25;99099.16;5047163;28;20025;-50
2021/08/18 00:59:21;;;;;;;17.77;10.82;;;;;;;21.68;44.09;99095.91;5047153;28;20035;-49
2021/08/18 01:01:47;;;;;;;24.25;17.75;;;;;;;21.57;44.59;99100.44;5031838;28;20084;-49
2021/08/18 01:04:13;;;;;;;33.50;26.80;;;;;;;21.58;44.51;99094.00;5031879;28;20026;-50
2021/08/18 01:06:41;;;;;;;20.60;18.27;;;;;;;21.52;44.81;99093.19;5031857;28;20022;-49
2021/08/18 01:09:15;;;;;;;15.43;9.85;;;;;;;21.31;44.84;99086.16;5031819;28;20140;-49
2021/08/18 01:11:47;;;;;;;15.65;9.50;;;;;;;21.31;45.22;99081.63;5047050;28;20403;-49
2021/08/18 01:14:13;;;;;;;17.48;11.45;;;;;;;21.27;45.56;99079.72;5047120;28;20055;-49
2021/08/18 01:16:46;;;;;;;16.75;11.48;;;;;;;21.28;45.55;99076.00;5031723;28;20067;-49
2021/08/18 01:19:19;;;;;;;13.80;11.02;;;;;;;21.27;45.33;99075.19;5031721;28;20125;-50
2021/08/18 01:21:48;;;;;;;22.48;12.90;;;;;;;21.22;45.40;99080.50;5031732;28;20025;-49
2021/08/18 01:24:18;;;;;;;13.45;10.60;;;;;;;21.24;45.39;99077.56;5031720;28;20032;-49
2021/08/18 01:26:44;;;;;;;23.20;13.82;;;;;;;21.27;45.46;99071.69;5031202;28;20129;-49
2021/08/18 01:29:11;;;;;;;15.80;9.52;;;;;;;21.13;45.17;99077.53;5030336;28;20018;-49
2021/08/18 01:31:37;;;;;;;14.18;9.10;;;;;;;20.60;45.87;99082.00;5031475;28;20022;-49
2021/08/18 01:34:05;;;;;;;20.73;10.52;;;;;;;20.28;47.24;99084.66;5030267;28;20034;-49
2021/08/18 01:36:32;;;;;;;34.22;21.38;;;;;;;20.34;47.32;99083.66;5030253;28;20060;-49
2021/08/18 01:39:07;;;;;;;72.10;65.35;;;;;;;20.36;47.58;99086.88;5031536;28;20052;-49
2021/08/18 01:41:33;;;;;;;16.95;9.93;;;;;;;20.28;47.36;99079.34;5046834;28;20029;-49
2021/08/18 01:43:59;;;;;;;16.05;9.23;;;;;;;20.35;47.33;99074.59;5031486;28;20033;-49
2021/08/18 01:46:25;;;;;;;21.38;19.08;;;;;;;20.29;47.29;99086.28;5046733;28;20116;-49
2021/08/18 01:48:52;;;;;;;16.65;9.63;;;;;;;20.14;47.90;99079.78;5046960;28;20037;-49
2021/08/18 01:51:18;;;;;;;19.45;13.25;;;;;;;20.30;47.91;99072.72;5046599;28;20053;-49
2021/08/18 01:53:46;;;;;;;19.75;14.70;;;;;;;20.44;47.33;99070.41;5046710;28;20104;-50
2021/08/18 01:56:14;;;;;;;11.13;9.13;;;;;;;20.59;46.88;99068.97;5030034;28;20034;-49
2021/08/18 01:58:40;;;;;;;15.57;10.55;;;;;;;20.74;46.66;99067.19;5048155;28;20585;-49
2021/08/18 02:01:10;;;;;;;14.52;9.80;;;;;;;20.74;46.21;99069.03;5035115;28;20053;-49
2021/08/18 02:03:36;;;;;;;14.82;8.77;;;;;;;20.26;46.92;99070.78;5050393;28;20017;-49
2021/08/18 02:06:03;;;;;;;30.45;21.70;;;;;;;20.07;48.23;99073.03;5050410;28;20136;-50
2021/08/18 02:08:29;;;;;;;13.77;9.35;;;;;;;20.33;47.50;99066.84;5035070;28;20085;-49
2021/08/18 02:10:54;;;;;;;17.33;11.57;;;;;;;20.47;47.21;99066.44;5050104;28;20036;-49
2021/08/18 02:13:20;;;;;;;37.22;27.42;;;;;;;20.34;47.48;99068.47;5033598;28;20048;-49
2021/08/18 02:15:46;;;;;;;38.92;34.50;;;;;;;20.45;47.26;99066.69;5034847;28;20025;-49
2021/08/18 02:18:15;;;;;;;31.38;28.42;;;;;;;20.62;47.43;99063.09;5033590;28;20021;-48
2021/08/18 02:20:45;;;;;;;19.10;14.00;;;;;;;20.80;46.66;99069.88;5033479;28;20501;-49
2021/08/18 02:23:12;;;;;;;18.88;16.73;;;;;;;20.67;46.64;99068.47;5034807;28;20049;-49
2021/08/18 02:25:38;;;;;;;50.03;44.75;;;;;;;20.71;46.88;99072.22;5049976;28;20495;-49
2021/08/18 02:28:05;;;;;;;21.35;17.05;;;;;;;20.55;47.03;99066.75;5049780;28;20056;-49
2021/08/18 02:30:32;;;;;;;15.57;12.30;;;;;;;20.43;47.27;99068.00;5034516;28;20531;-49
2021/08/18 02:32:58;;;;;;;28.50;16.02;;;;;;;20.24;47.48;99070.25;5034545;28;20033;-49
2021/08/18 02:35:26;;;;;;;45.03;39.65;;;;;;;19.96;48.34;99066.81;5034531;28;20021;-49
2021/08/18 02:37:54;;;;;;;15.02;12.43;;;;;;;19.83;48.64;99070.69;5034441;28;20037;-49
2021/08/18 02:40:23;;;;;;;21.55;18.63;;;;;;;19.81;49.02;99066.66;5034451;28;20024;-49
2021/08/18 02:42:52;;;;;;;144.73;132.15;;;;;;;19.84;49.35;99064.31;5033041;28;20494;-49
2021/08/18 02:45:19;;;;;;;24.70;20.90;;;;;;;19.98;49.19;99067.38;5033022;28;20032;-49
2021/08/18 02:47:45;;;;;;;32.90;25.40;;;;;;;20.19;48.57;99064.88;5033262;28;20060;-49
2021/08/18 02:50:14;;;;;;;33.03;28.13;;;;;;;20.21;48.46;99058.25;5034256;28;20440;-49
2021/08/18 02:52:40;;;;;;;33.95;30.33;;;;;;;20.31;48.28;99052.97;5049358;28;20036;-50
2021/08/18 02:55:07;;;;;;;19.02;17.05;;;;;;;20.26;47.96;99052.13;5034201;28;20537;-50
2021/08/18 02:57:32;;;;;;;48.22;43.80;;;;;;;19.99;48.59;99050.31;5049385;28;20049;-49
2021/08/18 02:59:58;;;;;;;35.17;31.40;;;;;;;19.96;48.90;99056.16;5049353;28;20053;-50
2021/08/18 03:02:25;;;;;;;30.45;26.25;;;;;;;20.00;48.90;99049.28;5034017;28;20041;-50
2021/08/18 03:04:51;;;;;;;41.35;37.40;;;;;;;20.11;48.73;99052.81;5049283;28;20026;-49
2021/08/18 03:07:17;;;;;;;28.92;23.08;;;;;;;20.20;48.87;99051.28;5033933;28;20506;-50
2021/08/18 03:09:42;;;;;;;138.60;108.03;;;;;;;20.17;48.47;99054.47;5033525;28;20034;-50
2021/08/18 03:12:08;;;;;;;33.42;24.52;;;;;;;20.15;48.54;99049.38;5032447;28;20578;-49
2021/08/18 03:14:34;;;;;;;106.55;89.07;;;;;;;20.07;48.67;99051.72;5033761;28;20434;-50
2021/08/18 03:17:00;;;;;;;89.97;82.20;;;;;;;20.11;48.93;99050.97;5049046;28;20083;-50
2021/08/18 03:19:26;;;;;;;73.32;65.15;;;;;;;20.28;48.74;99056.19;5049012;28;20104;-49
2021/08/18 03:21:52;;;;;;;63.97;55.22;;;;;;;20.44;48.11;99049.06;5033595;28;20567;-50
2021/08/18 03:24:18;;;;;;;101.45;92.75;;;;;;;20.41;47.99;99046.13;5033667;28;20026;-49
2021/08/18 03:26:44;;;;;;;33.97;30.33;;;;;;;20.33;48.10;99044.75;5033325;28;20052;-49
2021/08/18 03:29:10;;;;;;;34.28;12.35;;;;;;;20.26;47.97;99055.63;5048922;28;20048;-49
2021/08/18 03:31:35;;;;;;;61.00;39.15;;;;;;;20.17;48.00;99048.34;5032108;28;20045;-49
2021/08/18 03:34:02;;;;;;;47.47;13.60;;;;;;;20.13;48.24;99051.50;5033520;28;20021;-49
2021/08/18 03:36:28;;;;;;;45.08;21.77;;;;;;;19.87;48.85;99055.81;5033435;28;20395;-50
2021/08/18 03:38:54;;;;;;;42.85;17.20;;;;;;;19.86;49.18;99056.03;5033368;28;20095;-49
2021/08/18 03:41:20;;;;;;;68.55;45.75;;;;;;;20.04;49.14;99055.72;5033300;28;20511;-49
2021/08/18 03:43:45;;;;;;;27.42;15.60;;;;;;;20.14;48.64;99053.13;5033231;28;20112;-49
2021/08/18 03:46:11;;;;;;;32.75;17.70;;;;;;;20.32;48.51;99051.13;5031913;28;20036;-50
2021/08/18 03:48:37;;;;;;;65.13;48.05;;;;;;;20.40;48.31;99049.84;5048432;28;20071;-50
2021/08/18 03:51:03;;;;;;;39.45;11.80;;;;;;;20.36;47.87;99052.22;5032989;28;20029;-49
2021/08/18 03:53:29;;;;;;;29.02;9.65;;;;;;;20.05;48.12;99049.31;5033071;28;20489;-49
2021/08/18 03:55:55;;;;;;;24.42;13.40;;;;;;;19.82;48.73;99052.28;5033013;28;20017;-49
2021/08/18 03:58:20;;;;;;;25.75;10.27;;;;;;;19.67;48.85;99052.91;5032966;28;20049;-50
2021/08/18 04:00:49;;;;;;;189.88;169.07;;;;;;;19.77;49.30;99060.25;5032876;28;20411;-49
2021/08/18 04:03:14;;;;;;;36.88;25.48;;;;;;;19.98;48.80;99048.72;5032906;28;20116;-49
2021/08/18 04:05:40;;;;;;;21.20;10.43;;;;;;;20.04;48.34;99053.03;5032769;28;20092;-49
2021/08/18 04:08:08;;;;;;;26.60;11.23;;;;;;;19.77;48.79;99052.25;5031414;28;20036;-49
2021/08/18 04:10:37;;;;;;;23.90;12.18;;;;;;;19.62;49.44;99053.66;5032681;28;20391;-49
2021/08/18 04:13:04;;;;;;;16.15;9.88;;;;;;;19.59;49.41;99048.03;5032687;28;20539;-49
2021/08/18 04:15:36;;;;;;;21.70;8.95;;;;;;;19.56;49.66;99047.47;5032620;28;20403;-49
2021/08/18 04:18:01;;;;;;;19.50;11.70;;;;;;;19.53;49.68;99052.50;5047955;28;20119;-49
2021/08/18 04:20:27;;;;;;;49.10;43.10;;;;;;;19.42;49.79;99056.09;5031129;28;20519;-49
2021/08/18 04:22:53;;;;;;;35.85;24.17;;;;;;;19.43;49.79;99053.19;5032291;28;20032;-49
2021/08/18 04:25:22;;;;;;;23.42;15.65;;;;;;;19.41;49.88;99054.50;5047748;28;20029;-49
2021/08/18 04:27:48;;;;;;;19.27;9.75;;;;;;;19.43;50.11;99050.53;5030969;28;20050;-49
2021/08/18 04:30:16;;;;;;;22.80;11.45;;;;;;;19.44;50.29;99062.78;5032424;28;20029;-49
2021/08/18 04:32:41;;;;;;;19.55;10.27;;;;;;;19.47;50.00;99056.97;5032249;28;20113;-49
2021/08/18 04:35:09;;;;;;;21.23;9.20;;;;;;;19.40;50.35;99061.69;5047588;28;20113;-49
2021/08/18 04:37:38;;;;;;;16.17;7.75;;;;;;;19.42;50.06;99059.56;5032284;28;20029;-49
2021/08/18 04:40:09;;;;;;;19.38;8.50;;;;;;;19.41;50.36;99059.81;5047525;28;20013;-49
2021/08/18 04:42:36;;;;;;;16.42;8.68;;;;;;;19.51;50.21;99065.25;5047534;28;20029;-49
2021/08/18 04:45:07;;;;;;;23.13;9.35;;;;;;;19.62;50.00;99068.81;5030806;28;20029;-49
2021/08/18 04:47:33;;;;;;;23.67;16.27;;;;;;;19.72;49.75;99055.66;5047366;28;20026;-49
2021/08/18 04:49:59;;;;;;;136.07;121.32;;;;;;;19.89;49.74;99056.34;5047327;28;20014;-49
2021/08/18 04:52:25;;;;;;;26.13;13.65;;;;;;;20.05;49.21;99057.31;5030630;28;20032;-49
2021/08/18 04:54:52;;;;;;;19.90;13.85;;;;;;;20.22;48.99;99059.03;5030706;28;20033;-49
2021/08/18 04:57:18;;;;;;;110.70;84.75;;;;;;;20.29;48.66;99063.09;5030630;28;20025;-50
2021/08/18 04:59:44;;;;;;;22.00;11.43;;;;;;;20.29;48.46;99059.63;5047268;28;20033;-49
2021/08/18 05:02:10;;;;;;;16.02;8.80;;;;;;;20.35;48.19;99058.63;5047165;28;20033;-49
2021/08/18 05:04:35;;;;;;;15.18;9.32;;;;;;;20.48;48.37;99058.19;5031858;28;20067;-49
2021/08/18 05:07:01;;;;;;;37.67;28.25;;;;;;;20.73;47.73;99059.44;5031836;28;20403;-49
2021/08/18 05:09:27;;;;;;;25.33;11.38;;;;;;;20.98;47.03;99065.97;5031821;28;20057;-49
2021/08/18 05:11:54;;;;;;;71.07;53.40;;;;;;;21.24;46.46;99065.03;5031754;28;20483;-50
2021/08/18 05:14:21;;;;;;;29.88;10.70;;;;;;;21.60;45.75;99051.81;5031792;28;20092;-49
2021/08/18 05:16:48;;;;;;;35.28;17.45;;;;;;;21.94;45.51;99060.16;5031726;28;20025;-49
2021/08/18 05:19:14;;;;;;;32.53;22.30;;;;;;;22.26;44.84;99058.34;5031712;28;20032;-49
2021/08/18 05:21:39;;;;;;;41.13;20.70;;;;;;;22.59;44.04;99051.59;5031950;28;20033;-49
2021/08/18 05:24:05;;;;;;;15.68;7.97;;;;;;;22.87;43.02;99060.91;5047008;28;20120;-49
2021/08/18 05:26:31;;;;;;;15.88;12.82;;;;;;;22.89;42.58;99053.41;5030058;28;20050;-49
2021/08/18 05:28:56;;;;;;;31.10;18.33;;;;;;;22.73;42.51;99054.53;5031759;28;20026;-49
2021/08/18 05:31:22;;;;;;;352.60;315.45;;;;;;;22.83;42.58;99051.81;5031564;28;20026;-49
2021/08/18 05:33:48;;;;;;;428.45;345.30;;;;;;;23.01;42.35;99060.34;5033834;28;20025;-49
2021/08/18 05:36:14;;;;;;;558.53;467.70;;;;;;;23.13;41.93;99050.94;5035622;28;20025;-48
2021/08/18 05:38:39;;;;;;;275.20;221.30;;;;;;;23.25;41.67;99055.19;5035529;28;20084;-49
2021/08/18 05:41:05;;;;;;;106.07;72.90;;;;;;;23.30;41.61;99047.94;5035514;28;20030;-49
2021/08/18 05:43:31;;;;;;;79.95;55.80;;;;;;;23.08;41.68;99051.00;5050845;28;20649;-49
2021/08/18 05:45:56;;;;;;;259.45;217.45;;;;;;;23.02;41.92;99051.25;5050758;28;20433;-49
2021/08/18 05:48:22;;;;;;;70.72;59.00;;;;;;;23.13;42.18;99047.47;5050759;28;20062;-49
2021/08/18 05:50:48;;;;;;;29.45;15.15;;;;;;;23.46;41.30;99061.25;5035279;28;20076;-49
2021/08/18 05:53:18;;;;;;;16.63;9.70;;;;;;;23.80;40.43;99047.16;5035323;28;20064;-49
2021/08/18 05:55:48;;;;;;;19.20;11.00;;;;;;;24.20;39.96;99056.75;5035242;28;20018;-49
2021/08/18 05:58:13;;;;;;;38.03;23.73;;;;;;;24.09;39.83;99049.91;5050472;28;20120;-49
2021/08/18 06:00:43;;;;;;;18.95;9.80;;;;;;;24.37;39.91;99047.50;5035163;28;20104;-49
2021/08/18 06:03:09;;;;;;;17.23;8.10;;;;;;;24.78;38.81;99041.78;5035156;28;20049;-49
2021/08/18 06:05:38;;;;;;;23.75;14.98;;;;;;;25.42;37.91;99045.06;5050402;28;20521;-49
2021/08/18 06:08:05;;;;;;;970.75;616.35;;;;;;;26.10;36.62;99035.75;5034953;28;20049;-49
2021/08/18 06:10:30;;;;;;;106.30;68.03;;;;;;;26.63;35.48;99032.69;5034955;28;20029;-49
2021/08/18 06:12:56;;;;;;;42.85;38.08;;;;;;;27.24;34.46;99041.47;5034871;28;20091;-49
2021/08/18 06:15:22;;;;;;;63.95;56.30;;;;;;;27.70;33.27;99037.75;5050209;28;20033;-49
2021/08/18 06:17:47;;;;;;;56.38;46.42;;;;;;;28.05;32.76;99039.94;5050210;28;20076;-49
2021/08/18 06:20:18;;;;;;;10.95;8.18;;;;;;;28.37;32.51;99033.47;5034871;28;20439;-48
2021/08/18 06:22:44;;;;;;;11.85;6.63;;;;;;;28.81;31.61;99036.38;5034784;28;20022;-49
2021/08/18 06:25:10;;;;;;;14.93;7.03;;;;;;;29.23;30.55;99031.44;5033462;28;20141;-49
2021/08/18 06:27:36;;;;;;;15.85;7.80;;;;;;;29.64;30.39;99033.69;5034445;28;20518;-49
2021/08/18 06:30:02;;;;;;;17.88;8.52;;;;;;;29.76;29.80;99034.97;5034596;28;20167;-49
2021/08/18 06:32:28;;;;;;;11.40;6.43;;;;;;;29.72;30.06;99032.13;5033203;28;20422;-49
2021/08/18 06:34:54;;;;;;;13.85;8.25;;;;;;;30.10;29.39;99033.34;5049907;28;20018;-50
2021/08/18 06:37:20;;;;;;;12.40;6.22;;;;;;;30.36;29.27;99039.53;5049809;28;20448;-49
2021/08/18 06:39:46;;;;;;;42.63;31.08;;;;;;;30.70;28.88;99031.59;5049766;28;20022;-50
2021/08/18 06:42:12;;;;;;;46.47;11.32;;;;;;;30.82;28.69;99039.81;5049683;28;20056;-50
2021/08/18 06:44:38;;;;;;;17.08;7.90;;;;;;;30.93;28.38;99037.56;5033667;28;20021;-50
2021/08/18 06:47:05;;;;;;;12.75;6.35;;;;;;;30.89;28.19;99039.34;5049652;28;20039;-49
2021/08/18 06:49:31;;;;;;;16.92;7.25;;;;;;;30.77;28.40;99034.63;5049573;28;20022;-49
2021/08/18 06:51:56;;;;;;;16.95;7.25;;;;;;;31.07;28.53;99046.28;5032826;28;20030;-49
2021/08/18 06:54:22;;;;;;;16.05;7.75;;;;;;;31.01;28.31;99051.09;5049482;28;20026;-49
2021/08/18 06:56:48;;;;;;;27.20;12.27;;;;;;;30.96;28.58;99050.47;5034158;28;20026;-49
2021/08/18 06:59:15;;;;;;;14.38;7.50;;;;;;;30.89;28.85;99044.75;5032712;28;20562;-49
2021/08/18 07:01:42;;;;;;;18.58;6.70;;;;;;;31.00;28.47;99049.47;5034094;28;20041;-49
2021/08/18 07:04:08;;;;;;;13.80;6.72;;;;;;;31.06;28.48;99047.38;5034056;28;20495;-49
2021/08/18 07:06:34;;;;;;;16.55;8.95;;;;;;;30.57;28.96;99049.69;5033953;28;20029;-49
2021/08/18 07:09:00;;;;;;;17.27;9.95;;;;;;;30.37;29.49;99048.47;5032613;28;20571;-49
2021/08/18 07:11:27;;;;;;;12.25;6.43;;;;;;;30.13;29.80;99044.34;5049056;28;20503;-49
2021/08/18 07:13:59;;;;;;;20.20;8.45;;;;;;;30.26;29.90;99046.06;5032545;28;20057;-50
2021/08/18 07:16:29;;;;;;;71.72;64.43;;;;;;;30.55;29.71;99049.19;5033792;28;20518;-49
2021/08/18 07:18:56;;;;;;;11.23;7.35;;;;;;;31.06;28.43;99048.19;5033778;28;20033;-50
2021/08/18 07:21:22;;;;;;;14.07;6.85;;;;;;;31.99;27.19;99048.13;5032384;28;20098;-49
2021/08/18 07:23:50;;;;;;;10.82;7.10;;;;;;;32.95;26.10;99046.31;5032343;28;20470;-50
2021/08/18 07:26:16;;;;;;;10.63;6.07;;;;;;;33.63;25.15;99049.16;5033318;28;20495;-49
2021/08/18 07:28:42;;;;;;;12.23;5.95;;;;;;;34.31;24.08;99036.63;5048881;28;20033;-50
2021/08/18 07:31:10;;;;;;;15.50;9.82;;;;;;;34.96;23.18;99030.00;5032139;28;20514;-50
2021/08/18 07:33:36;;;;;;;14.73;6.38;;;;;;;35.26;22.68;99038.50;5032121;28;20022;-49
2021/08/18 07:36:02;;;;;;;16.75;7.13;;;;;;;35.23;22.03;99039.19;5048681;28;20522;-50
2021/08/18 07:38:30;;;;;;;10.70;6.18;;;;;;;34.88;22.86;99036.44;5033405;28;20065;-49
2021/08/18 07:40:56;;;;;;;19.98;15.13;;;;;;;34.75;23.32;99033.84;5032007;28;20026;-49
2021/08/18 07:43:24;;;;;;;14.25;11.05;;;;;;;34.42;23.70;99034.94;5033249;28;20021;-49
2021/08/18 07:45:51;;;;;;;11.27;6.05;;;;;;;34.47;23.65;99033.09;5033198;28;20392;-50
2021/08/18 07:48:17;;;;;;;17.08;13.63;;;;;;;34.83;22.86;99034.75;5033252;28;20036;-49
2021/08/18 07:50:42;;;;;;;12.35;8.75;;;;;;;35.39;22.34;99039.94;5048641;28;20021;-49
2021/08/18 07:53:08;;;;;;;13.55;9.88;;;;;;;36.05;21.68;99029.16;5033008;28;20499;-49
2021/08/18 07:55:34;;;;;;;12.20;5.10;;;;;;;36.48;21.21;99035.38;5047398;28;20029;-49
2021/08/18 07:58:00;;;;;;;7.32;5.15;;;;;;;36.46;21.00;99034.94;5048182;28;20018;-49
2021/08/18 08:00:25;;;;;;;15.10;8.70;;;;;;;36.70;20.74;99031.06;5032901;28;20072;-50
2021/08/18 08:02:51;;;;;;;16.55;6.32;;;;;;;36.92;20.17;99028.66;5048185;28;20519;-50
2021/08/18 08:05:17;;;;;;;10.88;5.32;;;;;;;36.39;20.69;99021.94;5048179;28;20402;-50
2021/08/18 08:07:44;;;;;;;6.75;4.93;;;;;;;35.85;21.21;99020.19;5032831;28;20025;-50
2021/08/18 08:10:12;;;;;;;9.57;4.95;;;;;;;35.40;21.90;99036.06;5032835;28;20403;-50
2021/08/18 08:12:38;;;;;;;16.65;12.68;;;;;;;35.22;22.56;99032.16;5032683;28;20026;-49
2021/08/18 08:15:06;;;;;;;14.13;7.85;;;;;;;35.57;22.24;99029.38;5047881;28;20486;-50
2021/08/18 08:17:39;;;;;;;10.82;6.35;;;;;;;35.96;21.53;99028.56;5109698;27;20392;-49
2021/08/18 08:20:06;;;;;;;6.93;4.70;;;;;;;36.07;21.42;99026.84;5108374;28;20386;-48
2021/08/18 08:22:33;;;;;;;11.30;7.30;;;;;;;35.92;21.13;99025.81;5108354;28;20031;-49
2021/08/18 08:24:58;;;;;;;7.22;5.70;;;;;;;35.54;21.44;99021.13;5109629;28;20059;-49
2021/08/18 08:27:24;;;;;;;9.75;6.93;;;;;;;35.59;21.36;99023.56;5109591;28;20059;-49
2021/08/18 08:29:50;;;;;;;9.38;3.83;;;;;;;35.86;20.70;99032.72;5109595;28;20019;-47
2021/08/18 08:32:15;;;;;;;22.95;20.73;;;;;;;36.01;20.64;99033.75;5109500;28;20030;-49
2021/08/18 08:34:41;;;;;;;25.20;17.52;;;;;;;35.57;21.15;99026.66;5109434;28;20435;-49
2021/08/18 08:37:07;;;;;;;46.60;41.65;;;;;;;34.40;22.41;99034.50;5109349;28;20547;-49
2021/08/18 08:39:33;;;;;;;14.90;10.20;;;;;;;34.24;22.32;99030.97;5109298;28;20012;-48
2021/08/18 08:42:03;;;;;;;14.32;8.88;;;;;;;34.42;22.33;99028.69;5109316;28;20020;-49
2021/08/18 08:44:29;;;;;;;8.02;3.97;;;;;;;34.35;22.50;99031.25;5109242;28;20509;-48
2021/08/18 08:46:55;;;;;;;16.48;10.43;;;;;;;34.51;22.30;99031.25;5107855;28;20118;-49
2021/08/18 08:49:22;;;;;;;15.40;6.75;;;;;;;34.03;22.15;99040.16;5109137;28;20103;-49
2021/08/18 08:51:51;;;;;;;15.75;8.48;;;;;;;33.70;23.66;99042.34;5109098;28;20058;-48
2021/08/18 08:54:18;;;;;;;21.77;17.05;;;;;;;34.11;22.41;99037.59;5107655;28;20493;-48
2021/08/18 08:56:44;;;;;;;14.45;9.73;;;;;;;34.31;22.18;99041.25;5108901;28;20077;-48
2021/08/18 08:59:10;;;;;;;36.63;31.80;;;;;;;34.70;21.54;99025.91;5109159;28;20030;-48
2021/08/18 09:01:59;;;;;;;11.75;10.57;;;;;;;34.81;21.99;99021.50;5108848;28;20028;-48
2021/08/18 09:04:51;;;;;;;6.13;4.22;;;;;;;34.66;21.99;99029.69;5108839;28;20493;-48
2021/08/18 09:07:22;;;;;;;15.57;14.02;;;;;;;34.55;22.46;99029.41;5108826;28;20102;-49
2021/08/18 09:09:57;;;;;;;19.48;17.17;;;;;;;34.87;22.28;99013.81;5108805;28;20019;-48
2021/08/18 09:12:36;;;;;;;37.72;26.55;;;;;;;35.17;22.48;99016.06;5107299;28;20024;-49
2021/08/18 09:15:22;;;;;;;15.45;10.75;;;;;;;35.67;22.07;99013.59;5108658;28;20023;-49
2021/08/18 09:17:52;;;;;;;21.73;18.58;;;;;;;34.17;23.04;99020.69;5108662;28;20524;-49
2021/08/18 09:20:21;;;;;;;13.38;6.53;;;;;;;34.27;23.01;99019.41;5108441;28;20023;-49
2021/08/18 09:22:50;;;;;;;22.80;10.07;;;;;;;34.91;22.28;99020.16;5108559;28;20028;-48
2021/08/18 09:25:21;;;;;;;12.70;5.55;;;;;;;34.72;22.23;99017.38;5108380;28;20016;-49
2021/08/18 09:28:06;;;;;;;11.13;6.82;;;;;;;34.38;22.73;99023.16;5100503;28;20039;-49
2021/08/18 09:30:41;;;;;;;10.82;4.38;;;;;;;35.40;22.04;99008.75;5094565;28;20516;-49
2021/08/18 09:33:09;;;;;;;15.05;5.65;;;;;;;36.41;20.75;99005.19;5094764;28;20035;-49
2021/08/18 09:35:35;;;;;;;7.47;3.88;;;;;;;36.94;19.91;99007.19;5094582;28;20020;-51
2021/08/18 09:38:04;;;;;;;10.82;4.00;;;;;;;36.99;19.59;99013.13;5094693;28;20024;-51
2021/08/18 09:40:34;;;;;;;9.25;6.32;;;;;;;36.68;20.02;99006.00;5094583;28;20020;-51
2021/08/18 09:43:11;;;;;;;9.18;4.72;;;;;;;36.42;20.83;99003.25;5094596;28;20059;-51
2021/08/18 09:45:45;;;;;;;6.13;3.90;;;;;;;36.44;20.73;99009.91;5094425;28;20036;-51
2021/08/18 09:48:18;;;;;;;8.23;3.47;;;;;;;35.06;22.35;99004.91;5094469;28;20457;-49
2021/08/18 09:50:53;;;;;;;20.98;13.13;;;;;;;33.09;24.45;99010.63;5094468;28;20030;-49
2021/08/18 09:53:25;;;;;;;9.23;4.07;;;;;;;31.51;26.43;99016.97;5094334;28;20043;-48
2021/08/18 09:55:53;;;;;;;6.88;3.85;;;;;;;30.55;28.32;99022.13;5094194;28;20016;-48
2021/08/18 09:58:35;;;;;;;6.00;3.42;;;;;;;30.37;29.36;99013.25;5094222;28;20498;-48
2021/08/18 10:01:13;;;;;;;8.30;4.35;;;;;;;30.52;29.32;99023.53;5094256;28;20024;-51
2021/08/18 10:03:45;;;;;;;5.57;3.28;;;;;;;31.69;27.11;99017.59;5094189;28;20509;-51
2021/08/18 10:06:12;;;;;;;6.32;4.65;;;;;;;32.83;25.54;99009.81;5092782;28;20039;-49
2021/08/18 10:08:40;;;;;;;50.50;45.15;;;;;;;33.49;25.08;99009.84;5094050;28;20047;-50
2021/08/18 10:11:09;;;;;;;19.17;13.25;;;;;;;33.44;24.64;99005.41;5092645;28;20536;-49
2021/08/18 10:13:35;;;;;;;137.60;95.50;;;;;;;34.13;24.20;98999.91;5093960;28;20020;-49
2021/08/18 10:16:01;;;;;;;37.78;28.67;;;;;;;34.38;23.37;98995.91;5093491;28;20054;-49
2021/08/18 10:18:36;;;;;;;57.55;47.22;;;;;;;34.15;23.58;98997.69;5093818;28;20031;-49
2021/08/18 10:21:24;;;;;;;35.80;29.95;;;;;;;33.39;24.81;98995.59;5093862;28;20489;-49
2021/08/18 10:23:59;;;;;;;25.55;18.92;;;;;;;33.34;24.90;98998.53;5093344;28;20044;-49
2021/08/18 10:26:34;;;;;;;11.23;6.82;;;;;;;33.99;23.58;98997.63;5093713;28;20080;-49
2021/08/18 10:29:06;;;;;;;57.40;52.10;;;;;;;33.59;24.63;98990.31;5093686;28;20596;-49
2021/08/18 10:31:41;;;;;;;19.88;12.57;;;;;;;32.58;25.58;98997.41;5093607;28;20032;-49
2021/08/18 10:34:30;;;;;;;13.73;6.13;;;;;;;31.76;26.63;98987.22;5093517;28;20572;-50
2021/08/18 10:36:56;;;;;;;8.85;4.72;;;;;;;31.32;26.71;98997.63;5093301;28;20020;-49
2021/08/18 10:39:22;;;;;;;14.15;7.47;;;;;;;30.50;28.07;98993.28;5092437;28;20507;-49
2021/08/18 10:42:16;;;;;;;17.23;13.05;;;;;;;30.06;29.30;98993.41;5092078;28;20026;-49
2021/08/18 10:44:41;;;;;;;15.77;10.57;;;;;;;29.60;29.58;98989.47;5093404;28;20062;-51
2021/08/18 10:47:16;;;;;;;10.75;5.72;;;;;;;28.96;30.12;98995.44;5093251;28;20401;-51
2021/08/18 10:49:44;;;;;;;17.35;15.40;;;;;;;29.64;30.21;98981.47;5093301;28;20024;-51
2021/08/18 10:52:10;;;;;;;10.60;6.43;;;;;;;29.98;29.45;98988.00;5091852;28;20028;-51
2021/08/18 10:54:44;;;;;;;5.63;4.20;;;;;;;29.92;29.94;98986.56;5093172;28;20016;-51
2021/08/18 10:57:38;;;;;;;11.65;5.15;;;;;;;30.05;30.08;98985.59;5093023;28;20025;-51
2021/08/18 11:00:08;;;;;;;65.72;59.35;;;;;;;30.06;29.30;98971.75;5091732;28;20405;-51
2021/08/18 11:02:53;;;;;;;10.50;8.45;;;;;;;29.96;29.77;98985.63;5092985;28;20404;-51
2021/08/18 11:05:23;;;;;;;;;;;;;;;29.39;30.20;98975.00;5092077;28;20028;-51
2021/08/18 11:08:27;;;;;;;9.73;4.03;;;;;;;28.55;31.81;98988.44;5093507;28;20282;-51
2021/08/18 11:10:53;;;;;;;39.50;34.25;;;;;;;28.20;33.05;98990.97;5090858;28;20505;-49
2021/08/18 11:14:07;;;;;;;33.17;30.30;;;;;;;28.88;32.99;98982.69;5092767;28;20026;-50
2021/08/18 11:16:32;;;;;;;8.63;5.38;;;;;;;29.33;31.79;98976.25;5058298;28;20070;-49
2021/08/18 11:19:10;;;;;;;50.25;45.17;;;;;;;29.50;31.59;98987.09;5091385;28;20024;-52
2021/08/18 11:21:38;;;;;;;12.35;7.65;;;;;;;30.12;30.80;98979.69;5092706;28;20026;-51
2021/08/18 11:24:11;;;;;;;6.57;4.90;;;;;;;31.33;28.43;98977.50;5091221;28;20020;-51
2021/08/18 11:26:42;;;;;;;5.88;4.20;;;;;;;32.46;27.28;98965.53;5092582;28;20505;-52